This is the latest recevied weather packets stored in our database for station/object HP1COO-13. If no packets are shown the sender has not sent any weather packets the latest 1 day(s).
| Time | Temp. | Humidity | Pressure | Rain* | Wind** | Luminosity | Snow |
|---|---|---|---|---|---|---|---|
| 1778090806 | 32.22° C | 71% | 1008.5 hPa | 0 mm | - | - | - |
| 1778090566 | 32.22° C | 71% | 1008.4 hPa | 0 mm | - | - | - |
| 1778090446 | 32.22° C | 70% | 1008.4 hPa | 0 mm | - | - | - |
| 1778083059 | 31.67° C | 72% | 1009.6 hPa | 0 mm | - | - | - |
| 1778082426 | 31.67° C | 71% | 1009.7 hPa | 0 mm | - | - | - |
| 1778081160 | 32.78° C | 67% | 1009.9 hPa | 0 mm | - | - | - |
| 1778079894 | 32.78° C | 68% | 1009.8 hPa | 0 mm | - | - | - |
| 1778077995 | 31.67° C | 72% | 1009.7 hPa | 0 mm | - | - | - |
| 1778077515 | 31.67° C | 74% | 1009.8 hPa | 0 mm | - | - | - |
| 1778076973 | 31.11° C | 76% | 1009.9 hPa | 0 mm | - | - | - |
| 1778076340 | 30.56° C | 77% | 1009.6 hPa | 0 mm | - | - | - |
| 1778075074 | 31.11° C | 76% | 1009.5 hPa | 0 mm | - | - | - |
| 1778074441 | 30° C | 79% | 1009.4 hPa | 0 mm | - | - | - |
| 1778073808 | 29.44° C | 79% | 1009.2 hPa | 0 mm | - | - | - |
| 1778073175 | 29.44° C | 80% | 1009.2 hPa | 0 mm | - | - | - |
| 1778072542 | 28.89° C | 84% | 1009.3 hPa | 0 mm | - | - | - |
| 1778071909 | 27.78° C | 86% | 1009.2 hPa | 0 mm | - | - | - |
| 1778070643 | 27.22° C | 88% | 1009.5 hPa | 0 mm | - | - | - |
| 1778070010 | 26.67° C | 89% | 1009.6 hPa | 0 mm | - | - | - |
| 1778069377 | 26.11° C | 93% | 1009.4 hPa | 0 mm | - | - | - |
| 1778068744 | 25.56° C | 94% | 1009.5 hPa | 0 mm | - | - | - |
| 1778068111 | 25.56° C | 94% | 1009.4 hPa | 0 mm | - | - | - |
| 1778067478 | 25.56° C | 94% | 1009.2 hPa | 0 mm | - | - | - |
| 1778066845 | 25.56° C | 94% | 1009 hPa | 0 mm | - | - | - |
| 1778066212 | 25.56° C | 95% | 1008.9 hPa | 0 mm | - | - | - |
* Rain latest hour (hover to see other rain measurements)
** Current wind speed in m/s (hover to see current wind gust speed)